YLMB weather

Lambrook Airport
New South Wales, Australia

Public forecast

Using degrees Celsius for public forecast. Weather courtesy of forecast.io.

Closest aviation weather report (METAR) to Lambrook Airport

Closest report is Coonabarabran Airport, 36.9 nm (68.4 km) WSW. Retrieved 2019/10/19 14:00 UTC (2 minutes ago):

YCBB 191400Z AUTO 17011KT 9999 // ////// 12/M01 Q1020

Closest aviation forecast (TAF) to Lambrook Airport

Closest forecast is Tamworth Airport, 47.0 nm (87.0 km) E. Retrieved 2019/10/19 12:36 UTC (1 hour ago):

TAF TAF YSTW 191113Z 1912/2006 21010KT 9999 -DU NSC FM191400 16007KT CAVOK FM200000 20010KT CAVOK PROB30 1912/1914 5000 BLDU